Time;durP1;ratioP1;P1;durP2;ratioP2;P2;SDS_P1;SDS_P2;PMS_P1;PMS_P2;Temp;Humidity;BMP_temperature;BMP_pressure;BME280_temperature;BME280_humidity;BME280_pressure;Samples;Min_cycle;Max_cycle;Signal;HPM_P1;HPM_P2
2022/03/10 00:01:23;;;;;;;30.87;16.10;;;;;;;;;;757294;184;620075;-68
2022/03/10 00:03:49;;;;;;;28.90;15.20;;;;;;;;;;755712;184;626955;-68
2022/03/10 00:06:15;;;;;;;33.07;16.90;;;;;;;;;;753326;184;629332;-68
2022/03/10 00:08:41;;;;;;;30.87;15.10;;;;;;;;;;753994;184;623527;-68
2022/03/10 00:11:06;;;;;;;36.97;16.17;;;;;;;;;;761834;184;618798;-68
2022/03/10 00:13:32;;;;;;;37.20;17.53;;;;;;;;;;757611;184;619039;-69
2022/03/10 00:15:59;;;;;;;38.60;18.77;;;;;;;;;;764163;184;628293;-68
2022/03/10 00:18:24;;;;;;;37.83;16.47;;;;;;;;;;758477;184;626296;-68
2022/03/10 00:20:51;;;;;;;35.40;17.47;;;;;;;;;;756374;186;631144;-68
2022/03/10 00:23:17;;;;;;;39.77;21.27;;;;;;;;;;760733;184;638581;-68
2022/03/10 00:25:43;;;;;;;31.20;18.20;;;;;;;;;;763373;185;617178;-68
2022/03/10 00:28:09;;;;;;;41.20;16.50;;;;;;;;;;757414;185;618113;-67
2022/03/10 00:30:35;;;;;;;38.97;21.57;;;;;;;;;;756559;186;636635;-66
2022/03/10 00:33:01;;;;;;;33.97;17.70;;;;;;;;;;751701;183;625650;-67
2022/03/10 00:35:26;;;;;;;34.87;19.47;;;;;;;;;;757131;187;624832;-66
2022/03/10 00:37:52;;;;;;;53.40;23.20;;;;;;;;;;754254;183;615460;-66
2022/03/10 00:40:19;;;;;;;52.27;24.47;;;;;;;;;;757375;185;633376;-66
2022/03/10 00:42:44;;;;;;;38.93;21.80;;;;;;;;;;762920;183;621747;-66
2022/03/10 00:45:10;;;;;;;45.77;19.47;;;;;;;;;;766126;184;628283;-66
2022/03/10 00:47:36;;;;;;;49.80;24.93;;;;;;;;;;764846;184;712712;-66
2022/03/10 00:50:02;;;;;;;52.73;26.00;;;;;;;;;;770876;183;626680;-65
2022/03/10 00:52:27;;;;;;;40.57;23.20;;;;;;;;;;764177;184;631062;-65
2022/03/10 00:54:53;;;;;;;37.43;21.20;;;;;;;;;;756402;184;630618;-65
2022/03/10 00:57:19;;;;;;;53.77;24.60;;;;;;;;;;755542;186;616205;-66
2022/03/10 00:59:45;;;;;;;47.80;24.07;;;;;;;;;;755397;184;628321;-66
2022/03/10 01:02:11;;;;;;;38.90;20.30;;;;;;;;;;755721;186;626024;-66
2022/03/10 01:04:37;;;;;;;48.90;25.40;;;;;;;;;;764046;184;631503;-66
2022/03/10 01:07:03;;;;;;;38.93;20.20;;;;;;;;;;770021;184;622210;-66
2022/03/10 01:09:28;;;;;;;33.63;17.27;;;;;;;;;;753144;184;622646;-66
2022/03/10 01:11:54;;;;;;;39.50;20.07;;;;;;;;;;749500;184;628865;-65
2022/03/10 01:14:20;;;;;;;53.77;25.30;;;;;;;;;;753064;184;637676;-65
2022/03/10 01:16:46;;;;;;;47.57;22.20;;;;;;;;;;750333;184;639480;-66
2022/03/10 01:19:12;;;;;;;30.37;18.70;;;;;;;;;;750051;184;634702;-66
2022/03/10 01:21:38;;;;;;;34.47;19.43;;;;;;;;;;751863;187;610889;-65
2022/03/10 01:24:04;;;;;;;39.60;19.20;;;;;;;;;;747788;184;715310;-66
2022/03/10 01:26:29;;;;;;;33.47;13.60;;;;;;;;;;748498;183;633501;-66
2022/03/10 01:28:55;;;;;;;40.80;22.23;;;;;;;;;;750489;184;631295;-67
2022/03/10 01:31:21;;;;;;;38.37;19.03;;;;;;;;;;754933;184;634259;-67
2022/03/10 01:33:47;;;;;;;30.93;16.70;;;;;;;;;;757941;182;617151;-66
2022/03/10 01:36:13;;;;;;;43.53;23.10;;;;;;;;;;768569;183;637133;-67
2022/03/10 01:38:39;;;;;;;41.27;19.50;;;;;;;;;;771635;183;657941;-67
2022/03/10 01:41:04;;;;;;;35.80;21.43;;;;;;;;;;766062;183;636083;-67
2022/03/10 01:43:30;;;;;;;40.17;19.93;;;;;;;;;;765293;183;627763;-68
2022/03/10 01:45:56;;;;;;;38.80;21.00;;;;;;;;;;769372;184;615955;-68
2022/03/10 01:48:22;;;;;;;45.00;24.70;;;;;;;;;;767190;184;615863;-67
2022/03/10 01:50:48;;;;;;;35.37;19.50;;;;;;;;;;767941;183;619049;-68
2022/03/10 01:53:14;;;;;;;41.60;21.83;;;;;;;;;;767414;183;627952;-68
2022/03/10 01:55:39;;;;;;;31.07;19.57;;;;;;;;;;755573;184;636133;-68
2022/03/10 01:58:05;;;;;;;44.60;20.73;;;;;;;;;;753700;183;620258;-68
2022/03/10 02:00:31;;;;;;;45.87;23.10;;;;;;;;;;749233;183;632726;-67
2022/03/10 02:02:57;;;;;;;35.17;18.63;;;;;;;;;;752945;183;631702;-68
2022/03/10 02:05:23;;;;;;;50.73;24.17;;;;;;;;;;748419;183;635395;-68
2022/03/10 02:10:20;;;;;;;45.73;22.67;;;;;;;;;;756148;183;615767;-68
2022/03/10 02:12:47;;;;;;;40.87;21.97;;;;;;;;;;753739;185;636167;-67
2022/03/10 02:17:44;;;;;;;42.40;19.77;;;;;;;;;;765177;184;622978;-68
2022/03/10 02:20:11;;;;;;;41.67;22.97;;;;;;;;;;751065;185;631845;-68
2022/03/10 02:22:36;;;;;;;39.63;21.80;;;;;;;;;;746054;184;634044;-67
2022/03/10 02:25:03;;;;;;;37.83;24.67;;;;;;;;;;752328;184;633005;-68
2022/03/10 02:27:28;;;;;;;38.07;22.93;;;;;;;;;;755823;184;624745;-68
2022/03/10 02:29:54;;;;;;;45.77;21.17;;;;;;;;;;754295;186;631829;-67
2022/03/10 02:32:20;;;;;;;42.40;21.93;;;;;;;;;;753967;186;626792;-68
2022/03/10 02:34:46;;;;;;;44.10;20.67;;;;;;;;;;754020;184;622337;-68
2022/03/10 02:37:12;;;;;;;36.50;20.63;;;;;;;;;;763246;184;706585;-68
2022/03/10 02:39:37;;;;;;;48.70;20.10;;;;;;;;;;752984;184;633728;-69
2022/03/10 02:42:03;;;;;;;30.10;16.50;;;;;;;;;;751653;184;628026;-67
2022/03/10 02:44:29;;;;;;;36.90;18.80;;;;;;;;;;754592;184;628160;-68
2022/03/10 02:46:55;;;;;;;31.90;21.30;;;;;;;;;;752744;183;630703;-68
2022/03/10 02:49:21;;;;;;;41.17;18.57;;;;;;;;;;757930;183;628801;-67
2022/03/10 02:51:47;;;;;;;32.27;17.17;;;;;;;;;;772224;183;628860;-68
2022/03/10 02:54:13;;;;;;;35.83;19.80;;;;;;;;;;767225;183;621109;-67
2022/03/10 02:56:38;;;;;;;29.97;18.50;;;;;;;;;;766473;184;690232;-68
2022/03/10 02:59:04;;;;;;;23.43;12.00;;;;;;;;;;763971;184;618956;-69
2022/03/10 03:01:30;;;;;;;29.23;15.53;;;;;;;;;;751215;185;615539;-69
2022/03/10 03:03:56;;;;;;;23.33;15.87;;;;;;;;;;751117;186;639221;-68
2022/03/10 03:06:22;;;;;;;30.17;18.40;;;;;;;;;;753906;185;633760;-67
2022/03/10 03:08:48;;;;;;;28.03;15.40;;;;;;;;;;761674;185;625048;-69
2022/03/10 03:11:13;;;;;;;21.80;13.90;;;;;;;;;;752837;183;637412;-68
2022/03/10 03:13:39;;;;;;;23.97;15.53;;;;;;;;;;752219;183;893345;-68
2022/03/10 03:16:05;;;;;;;27.57;12.40;;;;;;;;;;768872;184;619275;-67
2022/03/10 03:18:31;;;;;;;23.97;11.30;;;;;;;;;;768101;183;630151;-67
2022/03/10 03:20:57;;;;;;;16.13;10.83;;;;;;;;;;766488;184;631087;-68
2022/03/10 03:23:24;;;;;;;28.57;11.20;;;;;;;;;;767754;184;619453;-68
2022/03/10 03:25:49;;;;;;;25.63;13.20;;;;;;;;;;763749;184;614609;-67
2022/03/10 03:28:15;;;;;;;19.27;10.90;;;;;;;;;;764021;184;633486;-67
2022/03/10 03:30:41;;;;;;;24.60;12.03;;;;;;;;;;764276;184;616840;-68
2022/03/10 03:33:07;;;;;;;19.43;12.07;;;;;;;;;;767653;184;614575;-67
2022/03/10 03:35:33;;;;;;;22.87;14.77;;;;;;;;;;763088;184;638232;-67
2022/03/10 03:37:58;;;;;;;26.47;14.87;;;;;;;;;;766687;184;619036;-68
2022/03/10 03:40:24;;;;;;;15.47;10.90;;;;;;;;;;760661;184;626036;-68
2022/03/10 03:42:50;;;;;;;21.70;11.40;;;;;;;;;;754441;187;626531;-67
2022/03/10 03:45:16;;;;;;;20.93;12.47;;;;;;;;;;754099;186;638550;-68
2022/03/10 03:47:42;;;;;;;19.07;9.27;;;;;;;;;;756397;184;614985;-68
2022/03/10 03:50:08;;;;;;;31.87;15.67;;;;;;;;;;747622;184;623238;-67
2022/03/10 03:52:34;;;;;;;28.73;16.10;;;;;;;;;;754284;184;722638;-67
2022/03/10 03:55:00;;;;;;;29.37;14.55;;;;;;;;;;754526;185;633522;-68
2022/03/10 03:57:26;;;;;;;25.40;15.13;;;;;;;;;;767810;183;625749;-68
2022/03/10 03:59:52;;;;;;;25.88;13.80;;;;;;;;;;755545;183;731234;-68
2022/03/10 04:02:18;;;;;;;22.57;12.20;;;;;;;;;;756884;183;628660;-68
2022/03/10 04:04:44;;;;;;;26.30;16.50;;;;;;;;;;757991;184;618523;-68
2022/03/10 04:07:09;;;;;;;25.33;13.70;;;;;;;;;;761483;183;633330;-67
2022/03/10 04:09:35;;;;;;;28.00;15.87;;;;;;;;;;749594;184;650194;-68
2022/03/10 04:12:01;;;;;;;32.63;17.90;;;;;;;;;;765005;183;625942;-68
2022/03/10 04:14:27;;;;;;;24.73;12.90;;;;;;;;;;753615;183;629200;-67
2022/03/10 04:16:53;;;;;;;35.20;17.60;;;;;;;;;;756562;184;638358;-68
2022/03/10 04:19:19;;;;;;;35.53;19.57;;;;;;;;;;767951;184;623722;-69
2022/03/10 04:21:45;;;;;;;32.23;15.80;;;;;;;;;;763837;184;621200;-68
2022/03/10 04:24:10;;;;;;;34.60;16.60;;;;;;;;;;764427;184;631082;-67
2022/03/10 04:26:36;;;;;;;31.60;19.07;;;;;;;;;;759659;184;614177;-67
2022/03/10 04:29:02;;;;;;;45.03;21.60;;;;;;;;;;762710;183;802519;-68
2022/03/10 04:31:28;;;;;;;39.33;20.57;;;;;;;;;;754738;184;636549;-69
2022/03/10 04:33:54;;;;;;;41.10;18.40;;;;;;;;;;757298;184;635569;-68
2022/03/10 04:36:19;;;;;;;48.47;24.30;;;;;;;;;;762486;180;611923;-70
2022/03/10 04:38:45;;;;;;;28.63;15.50;;;;;;;;;;759572;184;637736;-68
2022/03/10 04:41:11;;;;;;;45.30;23.17;;;;;;;;;;753317;184;639865;-67
2022/03/10 04:43:37;;;;;;;48.07;22.97;;;;;;;;;;759065;184;634374;-68
2022/03/10 04:46:03;;;;;;;47.30;24.43;;;;;;;;;;757809;184;621065;-68
2022/03/10 04:48:29;;;;;;;41.03;27.70;;;;;;;;;;761057;184;624817;-68
2022/03/10 04:50:55;;;;;;;31.03;18.67;;;;;;;;;;759897;184;627907;-68
2022/03/10 04:53:21;;;;;;;28.33;17.00;;;;;;;;;;755432;184;622410;-67
2022/03/10 04:55:46;;;;;;;31.57;15.20;;;;;;;;;;753311;184;632197;-69
2022/03/10 04:58:12;;;;;;;34.73;16.47;;;;;;;;;;761216;184;626547;-68
2022/03/10 05:00:38;;;;;;;32.10;15.10;;;;;;;;;;758086;184;613932;-68
2022/03/10 05:03:04;;;;;;;33.83;17.67;;;;;;;;;;763588;184;626401;-67
2022/03/10 05:05:30;;;;;;;22.67;11.50;;;;;;;;;;756121;184;639050;-66
2022/03/10 05:07:56;;;;;;;19.63;9.50;;;;;;;;;;759526;184;629907;-66
2022/03/10 05:10:21;;;;;;;24.27;13.73;;;;;;;;;;759396;183;636081;-69
2022/03/10 05:12:47;;;;;;;25.47;15.60;;;;;;;;;;760072;184;614363;-67
2022/03/10 05:15:13;;;;;;;32.27;15.20;;;;;;;;;;759668;183;634732;-68
2022/03/10 05:17:39;;;;;;;25.50;14.67;;;;;;;;;;754820;184;621521;-68
2022/03/10 05:20:05;;;;;;;20.27;11.60;;;;;;;;;;754872;183;703626;-67
2022/03/10 05:22:37;;;;;;;26.60;12.20;;;;;;;;;;763723;184;755325;-66
2022/03/10 05:25:03;;;;;;;25.23;12.87;;;;;;;;;;767846;184;641477;-68
2022/03/10 05:27:29;;;;;;;33.73;15.80;;;;;;;;;;766961;183;632077;-68
2022/03/10 05:29:54;;;;;;;31.20;12.57;;;;;;;;;;759991;184;630274;-68
2022/03/10 05:32:20;;;;;;;25.80;13.63;;;;;;;;;;753809;183;630362;-66
2022/03/10 05:34:46;;;;;;;29.10;14.60;;;;;;;;;;756909;184;639435;-67
2022/03/10 05:37:12;;;;;;;31.83;13.38;;;;;;;;;;755437;184;627947;-67
2022/03/10 05:39:38;;;;;;;24.87;12.80;;;;;;;;;;745512;183;635768;-68
2022/03/10 05:42:04;;;;;;;32.17;17.33;;;;;;;;;;751368;184;639919;-68
2022/03/10 05:44:30;;;;;;;29.17;14.67;;;;;;;;;;753387;184;626768;-68
2022/03/10 05:46:55;;;;;;;32.75;18.02;;;;;;;;;;753307;186;615214;-68
2022/03/10 05:49:21;;;;;;;30.13;13.70;;;;;;;;;;758338;186;628256;-68
2022/03/10 05:51:47;;;;;;;35.40;17.30;;;;;;;;;;764629;183;632195;-70
2022/03/10 05:54:13;;;;;;;25.10;13.50;;;;;;;;;;762640;184;621670;-67
2022/03/10 05:56:39;;;;;;;40.60;26.47;;;;;;;;;;755991;184;624942;-68
2022/03/10 05:59:05;;;;;;;34.40;15.40;;;;;;;;;;753233;184;634949;-67
2022/03/10 06:01:30;;;;;;;23.10;13.23;;;;;;;;;;749712;184;625342;-67
2022/03/10 06:03:57;;;;;;;32.77;20.30;;;;;;;;;;752163;186;629461;-70
2022/03/10 06:06:22;;;;;;;30.57;19.33;;;;;;;;;;741683;189;615783;-68
2022/03/10 06:08:48;;;;;;;28.83;18.70;;;;;;;;;;742870;190;635802;-67
2022/03/10 06:11:14;;;;;;;27.83;14.10;;;;;;;;;;737263;190;674989;-67
2022/03/10 06:13:40;;;;;;;29.23;15.20;;;;;;;;;;753597;185;632821;-68
2022/03/10 06:16:06;;;;;;;21.77;12.67;;;;;;;;;;757261;183;629971;-67
2022/03/10 06:18:32;;;;;;;41.03;23.07;;;;;;;;;;752589;184;628034;-68
2022/03/10 06:20:58;;;;;;;31.90;18.00;;;;;;;;;;760872;184;637103;-68
2022/03/10 06:23:23;;;;;;;30.67;16.50;;;;;;;;;;759742;184;675363;-67
2022/03/10 06:25:49;;;;;;;23.00;10.60;;;;;;;;;;759881;184;634545;-68
2022/03/10 06:28:15;;;;;;;31.50;15.90;;;;;;;;;;759455;184;684220;-66
2022/03/10 06:30:41;;;;;;;25.83;14.30;;;;;;;;;;757636;183;635018;-68
2022/03/10 06:33:07;;;;;;;41.00;22.07;;;;;;;;;;757028;184;627171;-67
2022/03/10 06:35:32;;;;;;;37.93;18.20;;;;;;;;;;758540;184;629072;-68
2022/03/10 06:37:58;;;;;;;22.33;12.40;;;;;;;;;;757890;183;632746;-68
2022/03/10 06:40:24;;;;;;;19.33;10.90;;;;;;;;;;757981;183;642864;-68
2022/03/10 06:42:50;;;;;;;21.10;11.73;;;;;;;;;;763271;184;633060;-67
2022/03/10 06:45:16;;;;;;;25.47;12.70;;;;;;;;;;766206;184;642146;-66
2022/03/10 06:47:42;;;;;;;18.80;11.43;;;;;;;;;;751715;185;644210;-67
2022/03/10 06:50:08;;;;;;;14.73;9.43;;;;;;;;;;754547;184;691996;-66
2022/03/10 06:52:34;;;;;;;12.47;6.07;;;;;;;;;;755610;186;630333;-66
2022/03/10 06:54:59;;;;;;;12.02;7.43;;;;;;;;;;754636;186;779995;-67
2022/03/10 06:57:25;;;;;;;18.40;7.50;;;;;;;;;;748264;184;642231;-67
2022/03/10 06:59:51;;;;;;;13.23;6.33;;;;;;;;;;751596;187;642864;-66
2022/03/10 07:02:17;;;;;;;10.03;6.73;;;;;;;;;;749914;184;630236;-67
2022/03/10 07:04:43;;;;;;;16.67;8.35;;;;;;;;;;749389;187;628009;-67
2022/03/10 07:07:09;;;;;;;14.67;7.60;;;;;;;;;;748559;183;625972;-67
2022/03/10 07:09:35;;;;;;;11.93;6.17;;;;;;;;;;758981;184;629073;-66
2022/03/10 07:12:00;;;;;;;12.73;8.50;;;;;;;;;;766328;184;616210;-67
2022/03/10 07:14:26;;;;;;;18.80;9.13;;;;;;;;;;763673;184;619335;-68
2022/03/10 07:16:52;;;;;;;21.23;11.53;;;;;;;;;;761237;184;625223;-68
2022/03/10 07:19:18;;;;;;;22.27;11.05;;;;;;;;;;753132;184;627772;-67
2022/03/10 07:21:44;;;;;;;23.37;12.47;;;;;;;;;;752033;186;628245;-68
2022/03/10 07:24:10;;;;;;;27.17;12.27;;;;;;;;;;755207;186;628290;-68
2022/03/10 07:26:35;;;;;;;34.93;13.50;;;;;;;;;;745581;184;668041;-66
2022/03/10 07:29:01;;;;;;;23.00;9.67;;;;;;;;;;744985;185;647738;-67
2022/03/10 07:31:28;;;;;;;16.47;9.00;;;;;;;;;;751385;182;623464;-68
2022/03/10 07:33:54;;;;;;;26.03;9.00;;;;;;;;;;757021;183;615013;-67
2022/03/10 07:36:20;;;;;;;15.27;9.07;;;;;;;;;;755732;183;640737;-67
2022/03/10 07:38:45;;;;;;;21.00;9.50;;;;;;;;;;757101;183;625123;-67
2022/03/10 07:41:11;;;;;;;23.57;12.47;;;;;;;;;;760924;180;627794;-68
2022/03/10 07:43:37;;;;;;;19.80;10.30;;;;;;;;;;759509;183;643706;-67
2022/03/10 07:46:05;;;;;;;31.20;16.60;;;;;;;;;;762600;184;635766;-68
2022/03/10 07:48:30;;;;;;;24.17;13.53;;;;;;;;;;755435;183;625373;-67
2022/03/10 07:50:56;;;;;;;32.63;13.97;;;;;;;;;;748965;184;625986;-68
2022/03/10 07:53:21;;;;;;;28.27;13.90;;;;;;;;;;748357;184;642750;-67
2022/03/10 07:55:48;;;;;;;26.47;14.90;;;;;;;;;;749181;184;623690;-66
2022/03/10 07:58:13;;;;;;;24.93;11.27;;;;;;;;;;753886;182;629051;-68
2022/03/10 08:00:39;;;;;;;18.37;8.17;;;;;;;;;;761526;184;626004;-67
2022/03/10 08:03:06;;;;;;;17.57;10.47;;;;;;;;;;766861;183;626120;-67
2022/03/10 08:05:31;;;;;;;21.07;10.30;;;;;;;;;;759659;184;617030;-67
2022/03/10 08:07:57;;;;;;;13.10;7.60;;;;;;;;;;764867;184;625576;-67
2022/03/10 08:10:22;;;;;;;15.87;10.40;;;;;;;;;;761265;184;638706;-67
2022/03/10 08:12:48;;;;;;;10.97;6.27;;;;;;;;;;748689;184;626570;-67
2022/03/10 08:15:15;;;;;;;19.13;9.73;;;;;;;;;;754929;184;802405;-67
2022/03/10 08:17:40;;;;;;;23.20;10.83;;;;;;;;;;757549;184;651077;-67
2022/03/10 08:20:06;;;;;;;16.03;9.90;;;;;;;;;;760110;184;618913;-68
2022/03/10 08:22:32;;;;;;;17.53;6.90;;;;;;;;;;751017;184;621474;-67
2022/03/10 08:24:58;;;;;;;10.60;6.40;;;;;;;;;;750216;184;625176;-67
2022/03/10 08:27:24;;;;;;;9.13;5.10;;;;;;;;;;749078;184;622367;-67
2022/03/10 08:29:50;;;;;;;8.20;4.47;;;;;;;;;;758425;184;636391;-69
2022/03/10 08:32:16;;;;;;;10.80;6.83;;;;;;;;;;756941;184;624382;-68
2022/03/10 08:34:41;;;;;;;12.30;4.73;;;;;;;;;;755366;184;628384;-67
2022/03/10 08:37:07;;;;;;;9.63;3.90;;;;;;;;;;766533;184;623662;-68
2022/03/10 08:39:33;;;;;;;8.07;5.03;;;;;;;;;;765369;184;629128;-67
2022/03/10 08:41:59;;;;;;;11.83;5.60;;;;;;;;;;752557;184;634365;-68
2022/03/10 08:44:25;;;;;;;12.23;6.07;;;;;;;;;;755429;184;623072;-69
2022/03/10 08:46:50;;;;;;;8.43;4.97;;;;;;;;;;753292;186;623730;-68
2022/03/10 08:49:18;;;;;;;12.37;5.67;;;;;;;;;;752009;184;619364;-67
2022/03/10 08:51:44;;;;;;;13.40;7.80;;;;;;;;;;750056;186;634926;-68
2022/03/10 08:54:10;;;;;;;8.07;4.90;;;;;;;;;;749581;182;635710;-67
2022/03/10 08:56:35;;;;;;;13.05;4.90;;;;;;;;;;761298;183;632645;-67
2022/03/10 08:59:01;;;;;;;7.13;5.13;;;;;;;;;;754464;183;625321;-68
2022/03/10 09:01:26;;;;;;;6.47;3.70;;;;;;;;;;757233;186;623123;-68
2022/03/10 09:03:52;;;;;;;13.10;5.17;;;;;;;;;;750954;185;624980;-68
2022/03/10 09:06:19;;;;;;;8.70;5.17;;;;;;;;;;751554;183;626248;-67
2022/03/10 09:08:45;;;;;;;12.70;6.87;;;;;;;;;;753804;183;630004;-69
2022/03/10 09:11:10;;;;;;;7.00;4.80;;;;;;;;;;748888;184;633781;-68
2022/03/10 09:13:36;;;;;;;41.30;18.73;;;;;;;;;;755872;186;637050;-67
2022/03/10 09:16:01;;;;;;;14.33;8.13;;;;;;;;;;761774;184;624831;-68
2022/03/10 09:18:27;;;;;;;8.77;5.60;;;;;;;;;;758911;184;628352;-68
2022/03/10 09:20:53;;;;;;;14.73;6.10;;;;;;;;;;754756;184;621443;-68
2022/03/10 09:23:19;;;;;;;13.40;5.07;;;;;;;;;;757459;184;628778;-68
2022/03/10 09:25:45;;;;;;;11.00;6.10;;;;;;;;;;757899;184;644741;-69
2022/03/10 09:28:12;;;;;;;9.40;5.37;;;;;;;;;;756502;183;684132;-67
2022/03/10 09:30:36;;;;;;;6.80;3.60;;;;;;;;;;760008;184;627418;-66
2022/03/10 09:33:02;;;;;;;9.57;5.17;;;;;;;;;;759727;184;615040;-66
2022/03/10 09:35:28;;;;;;;13.60;6.10;;;;;;;;;;758943;184;617287;-66
2022/03/10 09:37:54;;;;;;;9.60;5.50;;;;;;;;;;752631;184;623071;-67
2022/03/10 09:40:20;;;;;;;5.63;4.13;;;;;;;;;;755226;186;614986;-65
2022/03/10 09:42:47;;;;;;;8.23;5.00;;;;;;;;;;752919;184;619962;-66
2022/03/10 09:45:13;;;;;;;6.80;5.27;;;;;;;;;;753180;184;630629;-68
2022/03/10 09:47:39;;;;;;;27.43;17.30;;;;;;;;;;756539;184;877177;-67
2022/03/10 09:50:06;;;;;;;11.93;5.03;;;;;;;;;;760913;181;641632;-67
2022/03/10 09:52:32;;;;;;;5.30;4.40;;;;;;;;;;758989;183;623584;-66
2022/03/10 09:54:57;;;;;;;6.33;3.70;;;;;;;;;;757462;184;634153;-66
2022/03/10 09:57:23;;;;;;;13.53;6.00;;;;;;;;;;763041;183;625966;-67
2022/03/10 09:59:50;;;;;;;10.77;4.53;;;;;;;;;;758509;184;628781;-66
2022/03/10 10:02:16;;;;;;;10.73;6.40;;;;;;;;;;762319;183;632338;-67
2022/03/10 10:04:43;;;;;;;19.73;7.43;;;;;;;;;;760124;184;629056;-67
2022/03/10 10:07:10;;;;;;;8.97;4.57;;;;;;;;;;753769;184;667120;-67
2022/03/10 10:09:39;;;;;;;8.43;6.10;;;;;;;;;;750103;187;640844;-66
2022/03/10 10:12:05;;;;;;;6.40;5.00;;;;;;;;;;754885;183;634622;-67
2022/03/10 10:14:36;;;;;;;8.67;3.73;;;;;;;;;;769901;183;634074;-67
2022/03/10 10:17:01;;;;;;;9.90;5.80;;;;;;;;;;760420;184;630092;-66
2022/03/10 10:19:27;;;;;;;24.10;11.33;;;;;;;;;;753466;184;620678;-68
2022/03/10 10:22:09;;;;;;;14.73;8.53;;;;;;;;;;757007;184;618796;-66
2022/03/10 10:24:35;;;;;;;9.70;5.13;;;;;;;;;;759486;183;672542;-66
2022/03/10 10:27:06;;;;;;;8.73;4.83;;;;;;;;;;755972;186;631000;-67
2022/03/10 10:29:32;;;;;;;9.27;6.30;;;;;;;;;;753353;184;634326;-68
2022/03/10 10:31:58;;;;;;;13.50;7.13;;;;;;;;;;755822;184;627092;-68
2022/03/10 10:34:24;;;;;;;15.40;9.30;;;;;;;;;;768507;184;621188;-67
2022/03/10 10:36:50;;;;;;;8.57;5.03;;;;;;;;;;760139;184;617811;-68
2022/03/10 10:39:18;;;;;;;8.73;5.57;;;;;;;;;;754154;186;680691;-68
2022/03/10 10:41:42;;;;;;;11.90;5.90;;;;;;;;;;755425;184;617395;-68
2022/03/10 10:44:08;;;;;;;12.03;6.97;;;;;;;;;;752179;184;626542;-68
2022/03/10 10:46:35;;;;;;;11.60;5.37;;;;;;;;;;752134;185;680230;-68
2022/03/10 10:49:01;;;;;;;7.93;5.10;;;;;;;;;;752935;185;617326;-68
2022/03/10 10:51:29;;;;;;;8.70;5.67;;;;;;;;;;755323;184;640062;-68
2022/03/10 10:53:54;;;;;;;11.23;6.50;;;;;;;;;;750884;185;632279;-68
2022/03/10 10:56:20;;;;;;;10.80;6.07;;;;;;;;;;752050;185;625325;-68
2022/03/10 10:58:46;;;;;;;16.37;7.47;;;;;;;;;;760869;184;615463;-68
2022/03/10 11:01:26;;;;;;;10.60;5.80;;;;;;;;;;754177;184;1009273;-68
2022/03/10 11:03:52;;;;;;;18.23;7.83;;;;;;;;;;734535;187;634593;-68
2022/03/10 11:06:19;;;;;;;13.83;7.30;;;;;;;;;;746058;187;627680;-68
2022/03/10 11:08:44;;;;;;;7.17;4.43;;;;;;;;;;755621;182;647140;-69
2022/03/10 11:11:10;;;;;;;10.67;5.73;;;;;;;;;;751821;183;625919;-69
2022/03/10 11:13:35;;;;;;;11.47;6.53;;;;;;;;;;751517;183;632915;-67
2022/03/10 11:16:01;;;;;;;8.17;3.93;;;;;;;;;;749630;187;645698;-66
2022/03/10 11:18:27;;;;;;;9.20;4.93;;;;;;;;;;751621;183;618231;-68
2022/03/10 11:21:09;;;;;;;9.03;5.00;;;;;;;;;;753835;183;625470;-68
2022/03/10 11:23:54;;;;;;;16.40;4.73;;;;;;;;;;745221;183;623473;-68
2022/03/10 11:26:19;;;;;;;13.83;4.90;;;;;;;;;;742006;183;617821;-69
2022/03/10 11:28:45;;;;;;;12.10;6.33;;;;;;;;;;759414;184;625870;-68
2022/03/10 11:31:11;;;;;;;13.60;6.03;;;;;;;;;;769097;184;626071;-68
2022/03/10 11:33:37;;;;;;;8.77;3.80;;;;;;;;;;766665;184;629017;-67
2022/03/10 11:36:08;;;;;;;11.70;7.03;;;;;;;;;;768250;183;627846;-69
2022/03/10 11:38:40;;;;;;;6.40;4.43;;;;;;;;;;764373;184;731940;-68
2022/03/10 11:41:06;;;;;;;10.20;5.90;;;;;;;;;;765945;182;615312;-68
2022/03/10 11:43:31;;;;;;;12.83;5.30;;;;;;;;;;759819;183;630252;-69
2022/03/10 11:46:03;;;;;;;8.73;4.43;;;;;;;;;;753726;184;624884;-69
2022/03/10 11:48:31;;;;;;;15.83;6.60;;;;;;;;;;745301;185;628195;-70
2022/03/10 11:50:57;;;;;;;11.83;6.53;;;;;;;;;;746413;186;635644;-67
2022/03/10 11:53:23;;;;;;;8.40;5.03;;;;;;;;;;761954;184;631769;-69
2022/03/10 11:55:50;;;;;;;15.53;7.27;;;;;;;;;;766718;184;630043;-68
2022/03/10 11:58:15;;;;;;;9.00;4.10;;;;;;;;;;767291;184;628727;-69
2022/03/10 12:00:50;;;;;;;7.93;4.57;;;;;;;;;;766380;184;636144;-68
2022/03/10 12:03:17;;;;;;;6.70;3.30;;;;;;;;;;763370;184;630257;-67
2022/03/10 12:05:49;;;;;;;11.43;5.00;;;;;;;;;;763371;184;637215;-68
2022/03/10 12:08:15;;;;;;;8.33;4.70;;;;;;;;;;764530;184;627429;-67
2022/03/10 12:10:41;;;;;;;8.53;4.27;;;;;;;;;;754163;186;628256;-67
2022/03/10 12:13:22;;;;;;;7.27;4.67;;;;;;;;;;753690;184;630626;-67
2022/03/10 12:15:47;;;;;;;7.43;4.60;;;;;;;;;;753531;184;700584;-68
2022/03/10 12:18:13;;;;;;;8.33;3.77;;;;;;;;;;758925;184;625451;-70
2022/03/10 12:20:39;;;;;;;5.80;3.03;;;;;;;;;;758087;185;633939;-68
2022/03/10 12:23:10;;;;;;;15.67;6.43;;;;;;;;;;761128;183;627788;-68
2022/03/10 12:25:36;;;;;;;5.63;3.40;;;;;;;;;;765610;183;625168;-67
2022/03/10 12:28:02;;;;;;;4.47;3.13;;;;;;;;;;767057;184;634172;-68
2022/03/10 12:30:28;;;;;;;9.27;3.93;;;;;;;;;;755835;186;629621;-67
2022/03/10 12:32:54;;;;;;;5.40;3.30;;;;;;;;;;753389;183;630303;-67
2022/03/10 12:35:20;;;;;;;6.00;3.57;;;;;;;;;;763529;185;627092;-68
2022/03/10 12:37:46;;;;;;;6.33;4.00;;;;;;;;;;762347;182;631126;-67
2022/03/10 12:40:12;;;;;;;18.40;4.47;;;;;;;;;;767041;184;628659;-69
2022/03/10 12:42:38;;;;;;;18.50;6.20;;;;;;;;;;762112;184;630910;-68
2022/03/10 12:45:04;;;;;;;12.10;5.00;;;;;;;;;;757041;185;617088;-70
2022/03/10 12:47:30;;;;;;;16.60;8.43;;;;;;;;;;755621;185;629369;-68
2022/03/10 12:49:57;;;;;;;11.35;5.75;;;;;;;;;;748962;187;617595;-67
2022/03/10 12:52:27;;;;;;;13.40;7.13;;;;;;;;;;753703;183;634429;-66
2022/03/10 12:54:47;;;;;;;8.77;5.90;;;;;;;;;;756539;184;617111;-69
2022/03/10 12:57:13;;;;;;;6.87;4.30;;;;;;;;;;757407;184;625079;-69
2022/03/10 12:59:40;;;;;;;5.83;3.97;;;;;;;;;;759922;184;636811;-69
2022/03/10 13:02:11;;;;;;;5.80;3.70;;;;;;;;;;760439;185;626826;-67
2022/03/10 13:04:36;;;;;;;8.30;4.67;;;;;;;;;;751350;184;633026;-69
2022/03/10 13:07:02;;;;;;;7.50;4.80;;;;;;;;;;748317;184;716794;-71
2022/03/10 13:09:28;;;;;;;7.77;4.17;;;;;;;;;;756306;186;750706;-69
2022/03/10 13:11:56;;;;;;;11.00;5.23;;;;;;;;;;752190;182;626664;-69
2022/03/10 13:14:21;;;;;;;8.83;4.60;;;;;;;;;;758153;185;630267;-68
2022/03/10 13:16:47;;;;;;;5.40;3.67;;;;;;;;;;759420;185;631804;-67
2022/03/10 13:19:17;;;;;;;7.60;3.77;;;;;;;;;;750853;184;623008;-68
2022/03/10 13:21:46;;;;;;;6.17;3.73;;;;;;;;;;740413;190;619445;-69
2022/03/10 13:24:12;;;;;;;8.13;3.27;;;;;;;;;;749940;183;627278;-67
2022/03/10 13:26:38;;;;;;;11.73;5.13;;;;;;;;;;758710;184;632753;-67
2022/03/10 13:29:04;;;;;;;8.30;4.40;;;;;;;;;;754643;184;622997;-68
2022/03/10 13:31:30;;;;;;;7.53;3.60;;;;;;;;;;760798;182;628349;-67
2022/03/10 13:33:56;;;;;;;7.03;3.87;;;;;;;;;;763801;183;628378;-68
2022/03/10 13:36:21;;;;;;;8.77;4.50;;;;;;;;;;753896;183;616041;-67
2022/03/10 13:38:47;;;;;;;13.03;4.60;;;;;;;;;;755540;184;636011;-70
2022/03/10 13:41:14;;;;;;;7.55;3.78;;;;;;;;;;764406;183;613003;-70
2022/03/10 13:43:40;;;;;;;15.43;3.70;;;;;;;;;;754217;183;631182;-68
2022/03/10 13:46:08;;;;;;;7.50;4.23;;;;;;;;;;758625;183;637239;-69
2022/03/10 13:48:34;;;;;;;9.40;4.50;;;;;;;;;;759569;184;619192;-68
2022/03/10 13:51:00;;;;;;;9.40;6.30;;;;;;;;;;768107;184;632218;-69
2022/03/10 13:53:26;;;;;;;6.30;4.13;;;;;;;;;;757858;184;626545;-69
2022/03/10 13:55:52;;;;;;;6.53;3.73;;;;;;;;;;746595;187;626224;-68
2022/03/10 13:58:18;;;;;;;19.93;5.63;;;;;;;;;;750164;183;620945;-68
2022/03/10 14:00:45;;;;;;;9.87;4.90;;;;;;;;;;745098;183;623796;-68
2022/03/10 14:03:14;;;;;;;6.17;3.30;;;;;;;;;;749785;185;623609;-69
2022/03/10 14:05:41;;;;;;;16.37;5.67;;;;;;;;;;758960;183;705510;-69
2022/03/10 14:08:12;;;;;;;9.13;5.23;;;;;;;;;;763571;185;632632;-69
2022/03/10 14:10:38;;;;;;;12.90;5.60;;;;;;;;;;765153;184;629184;-69
2022/03/10 14:13:03;;;;;;;9.97;4.90;;;;;;;;;;754170;184;625772;-69